Time;durP1;ratioP1;P1;durP2;ratioP2;P2;SDS_P1;SDS_P2;PMS_P1;PMS_P2;Temp;Humidity;BMP_temperature;BMP_pressure;BME280_temperature;BME280_humidity;BME280_pressure;Samples;Min_cycle;Max_cycle;Signal;HPM_P1;HPM_P2
2021/08/27 00:01:40;;;;;;;2.20;1.40;;;15.80;99.90;;;;;;5032949;28;20239;-67
2021/08/27 00:04:05;;;;;;;4.50;1.85;;;15.80;99.90;;;;;;5044080;28;20017;-68
2021/08/27 00:06:31;;;;;;;3.00;1.50;;;15.80;99.90;;;;;;5032798;28;20062;-68
2021/08/27 00:08:58;;;;;;;4.32;1.63;;;15.80;99.90;;;;;;5032619;28;20028;-68
2021/08/27 00:11:24;;;;;;;1.98;1.75;;;15.70;99.90;;;;;;5031446;28;20038;-68
2021/08/27 00:13:50;;;;;;;3.17;1.92;;;15.80;99.90;;;;;;5034531;28;20033;-67
2021/08/27 00:16:15;;;;;;;2.42;1.40;;;15.80;99.90;;;;;;5032548;28;20064;-67
2021/08/27 00:18:41;;;;;;;4.55;1.70;;;15.80;99.90;;;;;;5047035;28;20025;-68
2021/08/27 00:21:06;;;;;;;3.78;2.08;;;15.80;99.90;;;;;;5030914;28;20060;-68
2021/08/27 00:23:32;;;;;;;3.17;1.50;;;15.80;99.90;;;;;;5046258;28;20104;-68
2021/08/27 00:25:57;;;;;;;2.78;1.55;;;15.80;99.80;;;;;;5032534;28;20029;-68
2021/08/27 00:28:23;;;;;;;2.85;1.50;;;15.70;99.90;;;;;;5027308;28;20510;-68
2021/08/27 00:30:48;;;;;;;3.08;1.50;;;15.80;99.90;;;;;;5020891;28;20044;-68
2021/08/27 00:33:14;;;;;;;2.53;1.65;;;15.80;99.90;;;;;;5031861;28;20499;-68
2021/08/27 00:35:39;;;;;;;3.10;1.77;;;15.80;99.90;;;;;;5031905;28;20044;-68
2021/08/27 00:38:05;;;;;;;3.78;1.63;;;15.80;99.90;;;;;;5036502;28;20021;-67
2021/08/27 00:40:31;;;;;;;2.63;1.77;;;15.80;99.90;;;;;;5030737;28;20364;-68
2021/08/27 00:42:57;;;;;;;2.88;1.67;;;15.70;99.90;;;;;;5034926;28;20028;-67
2021/08/27 00:45:23;;;;;;;2.97;1.92;;;15.80;99.90;;;;;;5032610;28;20032;-68
2021/08/27 00:47:48;;;;;;;3.13;2.00;;;15.80;99.90;;;;;;5035248;28;20520;-67
2021/08/27 00:50:14;;;;;;;3.03;1.67;;;15.80;99.90;;;;;;5043807;28;20030;-67
2021/08/27 00:52:40;;;;;;;2.88;1.80;;;15.80;99.90;;;;;;5037004;28;20041;-68
2021/08/27 00:55:06;;;;;;;2.65;1.65;;;15.80;99.90;;;;;;5031451;28;20037;-67
2021/08/27 00:57:33;;;;;;;2.58;1.73;;;15.80;99.90;;;;;;5038340;28;20031;-67
2021/08/27 00:59:59;;;;;;;2.83;2.35;;;15.80;99.90;;;;;;5031701;28;20036;-67
2021/08/27 01:02:25;;;;;;;3.70;2.30;;;15.80;99.90;;;;;;5031597;28;20025;-67
2021/08/27 01:04:52;;;;;;;3.78;1.70;;;15.80;99.90;;;;;;5031362;28;20112;-67
2021/08/27 01:07:22;;;;;;;3.97;2.13;;;15.80;99.90;;;;;;5037174;28;20024;-67
2021/08/27 01:09:52;;;;;;;2.60;1.77;;;15.70;99.90;;;;;;5037035;28;20026;-67
2021/08/27 01:12:32;;;;;;;4.00;1.92;;;15.80;99.90;;;;;;5029541;28;20079;-67
2021/08/27 01:15:04;;;;;;;4.60;2.20;;;15.80;99.90;;;;;;5030577;28;20073;-67
2021/08/27 01:17:36;;;;;;;3.33;1.98;;;15.80;99.90;;;;;;5029816;28;20444;-66
2021/08/27 01:20:50;;;;;;;3.45;2.15;;;15.90;99.90;;;;;;5036909;28;20078;-66
2021/08/27 01:23:37;;;;;;;3.33;2.00;;;15.90;99.90;;;;;;5030002;28;20028;-66
2021/08/27 01:26:04;;;;;;;2.60;2.15;;;15.90;99.90;;;;;;5031895;28;20034;-67
2021/08/27 01:28:32;;;;;;;5.38;2.17;;;15.90;99.90;;;;;;5030407;28;20060;-67
2021/08/27 01:31:11;;;;;;;2.92;2.03;;;15.90;99.90;;;;;;5030057;28;20064;-68
2021/08/27 01:33:45;;;;;;;4.20;2.08;;;16.00;99.90;;;;;;5018862;28;20026;-68
2021/08/27 01:36:12;;;;;;;3.40;2.13;;;16.00;99.90;;;;;;5011737;28;20044;-68
2021/08/27 01:38:40;;;;;;;3.03;2.03;;;15.90;99.90;;;;;;5025837;28;20108;-68
2021/08/27 01:41:10;;;;;;;4.38;2.78;;;16.00;99.90;;;;;;5031417;28;20031;-68
2021/08/27 01:43:37;;;;;;;2.17;1.77;;;16.00;99.90;;;;;;5032622;28;20029;-67
2021/08/27 01:46:03;;;;;;;3.50;1.90;;;16.00;99.90;;;;;;5031330;28;20498;-69
2021/08/27 01:48:32;;;;;;;3.08;1.90;;;16.00;99.90;;;;;;5030302;28;20025;-67
2021/08/27 01:50:57;;;;;;;2.63;1.67;;;16.00;99.90;;;;;;5031268;28;20033;-67
2021/08/27 01:53:24;;;;;;;2.65;1.75;;;16.10;99.90;;;;;;5031416;28;20049;-68
2021/08/27 01:55:51;;;;;;;3.25;2.08;;;16.10;99.90;;;;;;5018645;28;20076;-68
2021/08/27 01:58:17;;;;;;;3.03;1.70;;;16.10;99.90;;;;;;5024607;28;20769;-69
2021/08/27 02:00:43;;;;;;;3.03;2.08;;;16.10;99.90;;;;;;5030594;28;20025;-67
2021/08/27 02:03:09;;;;;;;3.47;1.60;;;16.10;99.90;;;;;;5043428;28;20036;-68
2021/08/27 02:05:36;;;;;;;3.78;1.65;;;16.10;99.90;;;;;;5045628;28;20030;-68
2021/08/27 02:08:02;;;;;;;2.53;1.70;;;16.10;99.90;;;;;;5026044;28;20030;-69
2021/08/27 02:10:29;;;;;;;2.67;1.60;;;16.10;99.90;;;;;;5031164;28;20132;-68
2021/08/27 02:12:55;;;;;;;3.30;1.60;;;16.20;99.90;;;;;;5031902;28;20576;-68
2021/08/27 02:15:23;;;;;;;2.53;1.80;;;16.20;99.90;;;;;;5017540;28;20073;-68
2021/08/27 02:17:49;;;;;;;2.35;1.40;;;16.20;99.90;;;;;;5015568;28;20040;-68
2021/08/27 02:20:16;;;;;;;4.43;1.90;;;16.20;99.90;;;;;;5026512;28;20037;-68
2021/08/27 02:22:45;;;;;;;3.20;1.83;;;16.20;99.90;;;;;;5031810;28;20092;-67
2021/08/27 02:25:14;;;;;;;2.38;1.73;;;16.20;99.90;;;;;;5030768;28;20033;-67
2021/08/27 02:27:42;;;;;;;2.10;1.65;;;16.20;99.80;;;;;;5029434;28;20450;-67
2021/08/27 02:30:08;;;;;;;3.88;2.03;;;16.20;99.70;;;;;;5031057;28;20025;-68
2021/08/27 02:32:35;;;;;;;1.77;1.35;;;16.30;99.70;;;;;;5027409;28;20033;-68
2021/08/27 02:35:03;;;;;;;2.00;1.50;;;16.20;99.70;;;;;;5011277;28;20041;-67
2021/08/27 02:37:33;;;;;;;2.30;1.58;;;16.20;99.70;;;;;;5017654;28;20033;-67
2021/08/27 02:40:01;;;;;;;2.60;1.70;;;16.30;99.70;;;;;;5029564;28;20033;-68
2021/08/27 02:42:28;;;;;;;2.92;1.60;;;16.30;99.70;;;;;;5029839;28;20029;-67
2021/08/27 02:44:54;;;;;;;2.10;1.42;;;16.30;99.70;;;;;;5031148;28;20037;-67
2021/08/27 02:47:20;;;;;;;3.42;1.50;;;16.30;99.70;;;;;;5028589;28;20049;-68
2021/08/27 02:49:45;;;;;;;4.30;1.70;;;16.30;99.70;;;;;;5030810;28;20064;-68
2021/08/27 02:52:18;;;;;;;2.25;1.52;;;16.30;99.70;;;;;;5031774;28;20104;-68
2021/08/27 02:54:55;;;;;;;3.28;1.73;;;16.30;99.70;;;;;;5028410;28;20045;-68
2021/08/27 02:57:23;;;;;;;1.90;1.58;;;16.30;99.70;;;;;;5029915;28;20043;-67
2021/08/27 02:59:50;;;;;;;3.30;1.30;;;16.30;99.70;;;;;;5009639;28;20060;-68
2021/08/27 03:02:16;;;;;;;1.38;1.20;;;16.30;99.70;;;;;;5025121;28;20025;-67
2021/08/27 03:04:55;;;;;;;1.85;1.15;;;16.30;99.70;;;;;;5045810;28;20389;-67
2021/08/27 03:07:25;;;;;;;1.30;1.00;;;16.30;99.70;;;;;;5032369;28;20399;-67
2021/08/27 03:10:07;;;;;;;2.65;1.38;;;16.30;99.70;;;;;;5030605;28;20032;-67
2021/08/27 03:12:56;;;;;;;1.52;1.15;;;16.30;99.80;;;;;;5028371;28;20432;-67
2021/08/27 03:15:29;;;;;;;2.15;1.27;;;16.30;99.70;;;;;;5028987;28;20038;-67
2021/08/27 03:18:00;;;;;;;1.80;1.10;;;16.20;99.80;;;;;;5030274;28;20367;-67
2021/08/27 03:20:28;;;;;;;3.60;1.25;;;16.30;99.80;;;;;;5033209;28;20441;-67
2021/08/27 03:23:02;;;;;;;2.00;1.10;;;16.20;99.80;;;;;;5043918;28;20370;-68
2021/08/27 03:25:28;;;;;;;3.47;2.07;;;16.30;99.90;;;;;;5038495;28;20448;-66
2021/08/27 03:28:03;;;;;;;1.25;1.00;;;16.20;99.80;;;;;;5035875;28;20284;-67
2021/08/27 03:30:30;;;;;;;1.73;1.15;;;16.30;99.90;;;;;;5033417;28;20038;-66
2021/08/27 03:32:59;;;;;;;1.58;1.25;;;16.20;99.90;;;;;;5033480;28;20382;-67
2021/08/27 03:35:26;;;;;;;1.17;1.08;;;16.30;99.90;;;;;;5019917;28;20037;-67
2021/08/27 03:37:54;;;;;;;2.45;1.30;;;16.30;99.90;;;;;;5042897;28;20111;-67
2021/08/27 03:40:21;;;;;;;1.95;1.13;;;16.30;99.90;;;;;;5036545;28;20033;-67
2021/08/27 03:42:47;;;;;;;1.65;1.05;;;16.30;99.90;;;;;;5039833;28;20028;-67
2021/08/27 03:45:15;;;;;;;1.63;1.08;;;16.30;99.90;;;;;;5039402;28;20175;-67
2021/08/27 03:47:43;;;;;;;1.92;1.13;;;16.30;99.90;;;;;;5032349;28;20060;-67
2021/08/27 03:50:09;;;;;;;1.67;1.10;;;16.30;99.90;;;;;;5033063;28;20370;-72
2021/08/27 03:52:36;;;;;;;2.15;1.23;;;16.30;99.90;;;;;;5038756;28;20401;-69
2021/08/27 03:55:04;;;;;;;1.35;1.10;;;16.30;99.90;;;;;;5039104;28;20041;-68
2021/08/27 03:57:30;;;;;;;2.75;1.40;;;16.30;99.90;;;;;;5039628;28;20120;-66
2021/08/27 03:59:57;;;;;;;1.83;1.10;;;16.30;99.90;;;;;;5039016;28;20080;-67
2021/08/27 04:02:23;;;;;;;1.40;1.10;;;16.30;99.90;;;;;;5038740;28;20387;-72
2021/08/27 04:04:48;;;;;;;3.45;1.23;;;16.30;99.90;;;;;;5047248;28;20104;-66
2021/08/27 04:07:17;;;;;;;1.27;1.08;;;16.30;99.90;;;;;;5035546;28;20046;-65
2021/08/27 04:09:43;;;;;;;2.35;1.23;;;16.20;99.90;;;;;;5036983;28;20355;-66
2021/08/27 04:12:08;;;;;;;2.20;1.02;;;16.30;99.90;;;;;;5033805;28;20087;-65
2021/08/27 04:14:34;;;;;;;0.90;0.90;;;16.30;99.90;;;;;;5035008;28;20041;-65
2021/08/27 04:17:01;;;;;;;1.73;1.08;;;16.30;99.90;;;;;;5030866;28;20104;-65
2021/08/27 04:19:27;;;;;;;3.35;1.33;;;16.20;99.90;;;;;;5020028;28;20034;-65
2021/08/27 04:21:52;;;;;;;2.55;1.20;;;16.30;99.90;;;;;;5044759;28;20697;-65
2021/08/27 04:24:18;;;;;;;1.27;1.00;;;16.20;99.90;;;;;;5032231;28;20021;-65
2021/08/27 04:26:43;;;;;;;1.65;1.10;;;16.20;99.90;;;;;;5032575;28;20095;-65
2021/08/27 04:29:11;;;;;;;1.60;1.08;;;16.20;99.90;;;;;;5037030;28;20036;-65
2021/08/27 04:31:38;;;;;;;2.13;1.73;;;16.20;99.90;;;;;;5032615;28;20068;-65
2021/08/27 04:34:07;;;;;;;2.20;1.30;;;16.20;99.90;;;;;;5032257;28;20087;-65
2021/08/27 04:36:33;;;;;;;2.97;1.40;;;16.20;99.90;;;;;;5036532;28;20028;-65
2021/08/27 04:38:59;;;;;;;3.42;1.40;;;16.20;99.90;;;;;;5039023;28;20030;-64
2021/08/27 04:41:24;;;;;;;2.03;1.13;;;16.20;99.90;;;;;;5031353;28;20024;-64
2021/08/27 04:43:50;;;;;;;1.38;1.17;;;16.30;99.90;;;;;;5030604;28;20441;-64
2021/08/27 04:46:17;;;;;;;2.33;1.50;;;16.20;99.90;;;;;;5033235;28;20163;-63
2021/08/27 04:48:42;;;;;;;2.40;1.20;;;16.20;99.90;;;;;;5031298;28;20078;-63
2021/08/27 04:51:08;;;;;;;2.33;1.60;;;16.30;99.90;;;;;;5031948;28;20432;-64
2021/08/27 04:53:33;;;;;;;2.10;1.52;;;16.20;99.90;;;;;;5030282;28;20088;-64
2021/08/27 04:55:59;;;;;;;3.13;1.60;;;16.20;99.90;;;;;;5015946;28;20040;-64
2021/08/27 04:58:25;;;;;;;2.22;1.67;;;16.20;99.90;;;;;;5026910;28;20396;-65
2021/08/27 05:00:52;;;;;;;5.13;1.63;;;16.20;99.90;;;;;;5032242;28;20025;-65
2021/08/27 05:03:17;;;;;;;2.95;1.50;;;16.20;99.90;;;;;;5029761;28;20025;-65
2021/08/27 05:05:43;;;;;;;3.33;2.00;;;16.20;99.90;;;;;;5030934;28;20040;-65
2021/08/27 05:08:08;;;;;;;3.65;2.08;;;16.20;99.90;;;;;;5043183;28;20032;-65
2021/08/27 05:10:34;;;;;;;2.38;1.60;;;16.20;99.90;;;;;;5012983;28;20117;-65
2021/08/27 05:12:59;;;;;;;2.53;1.80;;;16.20;99.90;;;;;;5023023;28;20481;-65
2021/08/27 05:15:25;;;;;;;2.80;1.77;;;16.20;99.90;;;;;;5028972;28;20034;-66
2021/08/27 05:17:50;;;;;;;2.85;1.73;;;16.20;99.90;;;;;;5039193;28;20032;-66
2021/08/27 05:20:16;;;;;;;2.60;1.58;;;16.20;99.90;;;;;;5031359;28;20029;-65
2021/08/27 05:22:41;;;;;;;2.30;1.60;;;16.20;99.90;;;;;;5037679;28;20078;-65
2021/08/27 05:25:07;;;;;;;2.67;1.73;;;16.10;99.90;;;;;;5034987;28;20037;-65
2021/08/27 05:27:37;;;;;;;3.90;1.75;;;16.10;99.90;;;;;;5038499;28;20460;-65
2021/08/27 05:30:04;;;;;;;2.00;1.52;;;16.20;99.90;;;;;;5036122;28;20460;-65
2021/08/27 05:32:30;;;;;;;2.10;1.48;;;16.10;99.90;;;;;;5049187;28;20033;-65
2021/08/27 05:34:55;;;;;;;6.03;2.30;;;16.10;99.90;;;;;;5036708;28;20045;-65
2021/08/27 05:37:21;;;;;;;2.17;1.70;;;16.10;99.90;;;;;;5028118;28;20029;-65
2021/08/27 05:39:46;;;;;;;2.65;1.85;;;16.10;99.90;;;;;;5022301;28;20022;-65
2021/08/27 05:42:12;;;;;;;3.75;1.85;;;16.00;99.90;;;;;;5030570;28;20057;-65
2021/08/27 05:44:37;;;;;;;3.00;1.70;;;16.00;99.90;;;;;;5033829;28;20486;-65
2021/08/27 05:47:03;;;;;;;2.72;1.80;;;16.00;99.90;;;;;;5028444;28;20041;-64
2021/08/27 05:49:29;;;;;;;3.03;1.92;;;16.00;99.90;;;;;;5031757;28;20075;-64
2021/08/27 05:51:54;;;;;;;4.43;2.25;;;15.90;99.90;;;;;;5030149;28;20112;-64
2021/08/27 05:54:20;;;;;;;2.53;1.83;;;15.90;99.90;;;;;;5024166;28;20180;-63
2021/08/27 05:56:45;;;;;;;4.22;1.95;;;15.90;99.90;;;;;;5039019;28;20078;-65
2021/08/27 05:59:11;;;;;;;3.30;1.77;;;15.90;99.90;;;;;;5031394;28;20501;-63
2021/08/27 06:01:37;;;;;;;4.13;1.63;;;15.90;99.90;;;;;;5030185;28;20029;-64
2021/08/27 06:04:03;;;;;;;2.00;1.48;;;15.90;99.90;;;;;;5044935;28;20145;-64
2021/08/27 06:06:28;;;;;;;2.40;1.52;;;15.80;99.90;;;;;;5031181;28;20029;-64
2021/08/27 06:08:54;;;;;;;2.10;1.50;;;15.80;99.90;;;;;;5045782;28;20099;-64
2021/08/27 06:11:19;;;;;;;1.77;1.40;;;15.80;99.90;;;;;;5030808;28;20028;-64
2021/08/27 06:13:45;;;;;;;1.13;1.02;;;15.80;99.90;;;;;;5029232;28;20021;-65
2021/08/27 06:16:10;;;;;;;2.70;1.70;;;15.80;99.90;;;;;;5030105;28;20027;-65
2021/08/27 06:18:36;;;;;;;2.33;1.50;;;15.80;99.90;;;;;;5029397;28;20021;-64
2021/08/27 06:21:01;;;;;;;4.53;1.52;;;15.70;99.90;;;;;;5031118;28;20025;-65
2021/08/27 06:23:27;;;;;;;4.40;2.00;;;15.70;99.90;;;;;;5029864;28;20548;-65
2021/08/27 06:25:52;;;;;;;2.95;1.42;;;15.70;99.90;;;;;;5030865;28;20209;-64
2021/08/27 06:28:18;;;;;;;3.70;2.50;;;15.70;99.90;;;;;;5031853;28;20068;-64
2021/08/27 06:30:43;;;;;;;1.77;1.30;;;15.80;99.90;;;;;;5030665;28;20470;-65
2021/08/27 06:33:09;;;;;;;4.28;1.75;;;15.70;99.90;;;;;;5029251;28;20494;-66
2021/08/27 06:35:35;;;;;;;4.00;1.48;;;15.70;99.90;;;;;;5027419;28;20072;-65
2021/08/27 06:40:46;;;;;;;3.13;1.73;;;15.70;99.90;;;;;;5037622;28;20125;-66
2021/08/27 06:43:12;;;;;;;2.55;1.70;;;15.80;99.90;;;;;;5034397;28;20029;-65
2021/08/27 06:45:38;;;;;;;3.88;1.98;;;15.90;99.90;;;;;;5034816;28;20040;-66
2021/08/27 06:48:04;;;;;;;2.63;1.70;;;16.00;99.90;;;;;;5029588;28;20033;-67
2021/08/27 06:50:29;;;;;;;3.97;2.00;;;16.10;99.90;;;;;;5012449;28;20486;-67
2021/08/27 06:52:56;;;;;;;2.97;1.65;;;16.30;99.90;;;;;;5022868;28;20041;-67
2021/08/27 06:55:21;;;;;;;2.70;1.65;;;16.30;99.90;;;;;;5034778;28;20043;-66
2021/08/27 06:57:47;;;;;;;2.58;1.65;;;16.40;99.90;;;;;;5033199;28;20394;-67
2021/08/27 07:00:13;;;;;;;1.95;1.25;;;16.50;99.90;;;;;;5013997;28;20076;-65
2021/08/27 07:02:39;;;;;;;2.15;1.15;;;16.60;99.90;;;;;;5031958;28;20028;-66
2021/08/27 07:05:05;;;;;;;1.95;1.48;;;16.70;99.90;;;;;;5039711;28;20025;-66
2021/08/27 07:07:31;;;;;;;2.20;1.50;;;16.70;99.90;;;;;;5033297;28;20037;-66
2021/08/27 07:09:57;;;;;;;3.75;1.30;;;16.80;99.90;;;;;;5033193;28;20033;-65
2021/08/27 07:12:22;;;;;;;2.47;1.35;;;16.80;99.90;;;;;;5024373;28;20036;-64
2021/08/27 07:14:50;;;;;;;1.35;0.88;;;16.90;99.90;;;;;;5024547;28;20033;-64
2021/08/27 07:17:17;;;;;;;1.58;1.00;;;17.00;99.90;;;;;;5032039;28;20083;-65
2021/08/27 07:19:42;;;;;;;3.15;1.20;;;16.90;99.90;;;;;;5028383;28;20107;-64
2021/08/27 07:22:08;;;;;;;2.67;1.25;;;17.00;99.90;;;;;;5034319;28;20462;-64
2021/08/27 07:24:33;;;;;;;1.60;1.10;;;17.10;99.90;;;;;;5032108;28;20037;-65
2021/08/27 07:26:58;;;;;;;2.55;1.42;;;17.10;99.80;;;;;;5033147;28;20410;-65
2021/08/27 07:29:24;;;;;;;2.70;1.08;;;17.20;99.90;;;;;;5040792;28;20077;-65
2021/08/27 07:31:49;;;;;;;3.38;1.40;;;17.30;99.90;;;;;;5031351;28;20040;-64
2021/08/27 07:34:15;;;;;;;4.93;2.83;;;17.30;99.90;;;;;;5036270;28;20032;-64
2021/08/27 07:36:41;;;;;;;2.67;1.10;;;17.30;99.80;;;;;;5034101;28;20029;-65
2021/08/27 07:39:07;;;;;;;2.67;1.30;;;17.30;99.70;;;;;;5031481;28;20041;-65
2021/08/27 07:41:32;;;;;;;1.75;1.25;;;17.30;99.70;;;;;;5030696;28;20572;-64
2021/08/27 07:43:59;;;;;;;1.45;1.17;;;17.30;99.70;;;;;;5032472;28;20025;-64
2021/08/27 07:46:24;;;;;;;2.47;1.30;;;17.30;99.40;;;;;;5039351;28;20029;-65
2021/08/27 07:48:50;;;;;;;2.20;1.20;;;17.30;99.50;;;;;;5054571;28;20160;-65
2021/08/27 07:51:16;;;;;;;2.35;1.40;;;17.30;99.20;;;;;;5036339;28;20042;-65
2021/08/27 07:53:42;;;;;;;1.13;1.02;;;17.30;98.70;;;;;;5030451;28;20042;-65
2021/08/27 07:56:07;;;;;;;1.77;1.30;;;17.20;99.00;;;;;;5018697;28;20370;-66
2021/08/27 07:58:33;;;;;;;2.85;1.40;;;17.30;99.30;;;;;;5026884;28;20434;-65
2021/08/27 08:00:58;;;;;;;3.90;1.27;;;17.30;99.30;;;;;;5039065;28;20029;-65
2021/08/27 08:03:24;;;;;;;1.83;1.30;;;17.30;98.80;;;;;;5029887;28;20018;-65
2021/08/27 08:05:49;;;;;;;1.20;0.85;;;17.30;98.30;;;;;;5030740;28;20017;-64
2021/08/27 08:08:15;;;;;;;1.70;0.90;;;17.30;97.90;;;;;;5029586;28;20017;-64
2021/08/27 08:10:40;;;;;;;2.65;1.00;;;17.30;97.90;;;;;;5042839;28;20021;-65
2021/08/27 08:13:06;;;;;;;3.88;1.33;;;17.20;98.00;;;;;;5032184;28;20175;-65
2021/08/27 08:15:31;;;;;;;1.77;1.08;;;17.20;97.90;;;;;;5034712;28;20128;-64
2021/08/27 08:17:57;;;;;;;2.22;1.20;;;17.20;97.80;;;;;;5031611;28;20024;-64
2021/08/27 08:20:23;;;;;;;1.75;0.90;;;17.20;97.50;;;;;;5043135;28;20025;-64
2021/08/27 08:22:48;;;;;;;1.00;0.90;;;17.20;97.50;;;;;;5029900;28;20032;-64
2021/08/27 08:25:14;;;;;;;1.00;0.90;;;17.20;97.50;;;;;;5049965;28;20118;-64
2021/08/27 08:27:39;;;;;;;1.13;1.02;;;17.30;97.70;;;;;;5040049;28;20017;-65
2021/08/27 08:30:05;;;;;;;1.27;0.93;;;17.30;98.20;;;;;;5034209;28;20476;-64
2021/08/27 08:32:31;;;;;;;0.93;0.88;;;17.40;98.10;;;;;;5030005;28;20062;-66
2021/08/27 08:34:56;;;;;;;0.80;0.80;;;17.40;97.80;;;;;;5038464;28;20558;-65
2021/08/27 08:37:22;;;;;;;1.15;0.85;;;17.50;98.00;;;;;;5028261;28;20440;-64
2021/08/27 08:39:48;;;;;;;0.85;0.80;;;17.60;97.80;;;;;;5039809;28;20123;-65
2021/08/27 08:42:14;;;;;;;0.85;0.80;;;17.60;97.10;;;;;;5036198;28;20416;-64
2021/08/27 08:44:39;;;;;;;1.05;0.80;;;17.70;97.00;;;;;;5036414;28;20025;-65
2021/08/27 08:47:07;;;;;;;1.00;0.75;;;17.60;96.90;;;;;;5028180;28;20025;-64
2021/08/27 08:49:34;;;;;;;1.17;0.98;;;17.70;96.50;;;;;;5037534;28;20059;-64
2021/08/27 08:52:01;;;;;;;2.47;0.90;;;17.80;96.50;;;;;;5041901;28;20032;-64
2021/08/27 08:54:27;;;;;;;1.45;1.00;;;17.90;96.50;;;;;;5024004;28;20098;-65
2021/08/27 08:56:53;;;;;;;0.82;0.73;;;18.00;96.90;;;;;;5034657;28;20033;-64
2021/08/27 08:59:19;;;;;;;0.80;0.70;;;18.10;96.00;;;;;;5038321;28;20032;-64
2021/08/27 09:01:44;;;;;;;0.82;0.70;;;18.10;95.80;;;;;;5034656;28;20091;-64
2021/08/27 09:04:10;;;;;;;0.28;0.28;;;18.10;95.40;;;;;;5029908;28;20047;-65
2021/08/27 09:06:36;;;;;;;0.47;0.47;;;18.10;94.80;;;;;;5029518;28;20473;-65
2021/08/27 09:09:02;;;;;;;0.50;0.50;;;18.10;94.30;;;;;;5039876;28;20029;-65
2021/08/27 09:11:29;;;;;;;1.58;0.50;;;18.10;94.80;;;;;;5031099;28;20116;-65
2021/08/27 09:13:57;;;;;;;0.68;0.57;;;18.20;94.60;;;;;;5032697;28;20053;-67
2021/08/27 09:16:24;;;;;;;2.00;0.50;;;18.20;94.60;;;;;;5027570;28;20140;-64
2021/08/27 09:18:51;;;;;;;1.02;0.60;;;18.20;94.20;;;;;;5034095;28;20029;-64
2021/08/27 09:21:40;;;;;;;0.85;0.60;;;18.20;94.30;;;;;;5039241;28;20878;-65
2021/08/27 09:24:08;;;;;;;0.88;0.80;;;18.30;94.70;;;;;;5034450;28;20354;-65
2021/08/27 09:26:35;;;;;;;1.08;0.68;;;18.40;95.00;;;;;;5040265;28;20082;-65
2021/08/27 09:29:00;;;;;;;1.63;0.90;;;18.50;95.20;;;;;;5035649;28;20021;-65
2021/08/27 09:31:34;;;;;;;4.32;0.93;;;18.60;94.80;;;;;;5030547;28;20053;-65
2021/08/27 09:34:00;;;;;;;1.65;0.73;;;18.70;95.30;;;;;;5036720;28;20028;-65
2021/08/27 09:36:29;;;;;;;0.88;0.80;;;18.80;94.50;;;;;;5040591;28;20028;-65
2021/08/27 09:39:02;;;;;;;1.77;0.70;;;18.70;93.80;;;;;;5030640;28;20025;-65
2021/08/27 09:41:27;;;;;;;2.17;0.80;;;18.70;93.60;;;;;;5031898;28;20043;-63
2021/08/27 09:43:57;;;;;;;0.60;0.60;;;18.60;92.80;;;;;;5030195;28;20025;-64
2021/08/27 09:46:45;;;;;;;0.52;0.50;;;18.50;92.30;;;;;;5038779;28;20041;-63
2021/08/27 09:49:32;;;;;;;1.25;0.75;;;18.50;92.10;;;;;;5024906;28;20430;-66
2021/08/27 09:52:00;;;;;;;1.00;0.60;;;18.50;92.80;;;;;;5027298;28;20025;-65
2021/08/27 09:54:34;;;;;;;1.02;0.60;;;18.40;92.70;;;;;;5029620;28;20489;-65
2021/08/27 09:57:01;;;;;;;0.90;0.65;;;18.50;92.70;;;;;;5025409;28;20025;-65
2021/08/27 09:59:46;;;;;;;0.93;0.60;;;18.50;92.90;;;;;;5024902;28;20547;-65
2021/08/27 10:02:13;;;;;;;;;;;18.50;93.10;;;;;;5031692;28;20040;-65
2021/08/27 10:04:51;;;;;;;1.10;0.70;;;18.60;93.30;;;;;;5030031;28;20398;-65
2021/08/27 10:07:33;;;;;;;1.65;0.82;;;18.70;93.10;;;;;;5030945;28;20057;-65
2021/08/27 10:10:00;;;;;;;0.98;0.60;;;18.70;92.60;;;;;;5030538;28;20541;-65
2021/08/27 10:12:27;;;;;;;0.55;0.55;;;18.70;92.40;;;;;;5024343;28;20053;-66
2021/08/27 10:14:53;;;;;;;0.77;0.77;;;18.80;92.20;;;;;;5030845;28;20413;-66
2021/08/27 10:17:19;;;;;;;2.33;0.90;;;18.90;92.60;;;;;;5029915;28;20117;-66
2021/08/27 10:19:44;;;;;;;1.20;0.93;;;18.90;92.20;;;;;;5024735;28;20100;-66
2021/08/27 10:22:10;;;;;;;1.10;0.70;;;19.00;92.10;;;;;;5023469;28;20108;-66
2021/08/27 10:24:37;;;;;;;0.80;0.70;;;19.00;92.10;;;;;;5030982;28;20033;-66
2021/08/27 10:27:08;;;;;;;0.68;0.60;;;19.00;92.10;;;;;;5032725;28;20026;-66
2021/08/27 10:29:35;;;;;;;0.90;0.60;;;19.10;92.10;;;;;;5027098;28;20478;-65
2021/08/27 10:32:01;;;;;;;1.13;0.88;;;19.10;91.90;;;;;;5034648;28;20040;-65
2021/08/27 10:34:43;;;;;;;1.80;0.90;;;19.10;91.80;;;;;;5030429;28;20029;-65
2021/08/27 10:37:29;;;;;;;1.02;0.90;;;18.80;92.00;;;;;;5036679;28;20108;-65
2021/08/27 10:39:55;;;;;;;3.65;1.20;;;18.60;92.50;;;;;;5025901;28;20108;-66
2021/08/27 10:42:50;;;;;;;4.25;1.30;;;18.40;93.00;;;;;;5029851;28;20116;-64
2021/08/27 10:45:36;;;;;;;2.13;1.45;;;18.10;93.80;;;;;;5034474;28;20083;-64
2021/08/27 10:48:23;;;;;;;3.70;1.90;;;17.90;94.40;;;;;;5029197;28;20037;-64
2021/08/27 10:50:52;;;;;;;3.33;1.77;;;17.70;95.00;;;;;;5034073;28;20029;-64
2021/08/27 10:53:30;;;;;;;4.10;2.13;;;17.60;95.40;;;;;;5033638;28;20060;-64
2021/08/27 10:55:58;;;;;;;3.03;1.90;;;17.40;95.90;;;;;;5032356;28;20037;-64
2021/08/27 10:58:44;;;;;;;3.47;1.83;;;17.40;96.10;;;;;;5023913;28;20022;-64
2021/08/27 11:01:32;;;;;;;3.80;1.80;;;17.30;96.40;;;;;;5015345;28;20096;-63
2021/08/27 11:04:09;;;;;;;3.67;1.90;;;17.30;96.60;;;;;;5027267;28;20029;-72
2021/08/27 11:07:03;;;;;;;3.13;2.08;;;17.30;97.00;;;;;;5034462;28;20025;-71
2021/08/27 11:09:34;;;;;;;3.50;1.90;;;17.40;97.10;;;;;;5033375;28;20053;-70
2021/08/27 11:12:21;;;;;;;3.00;1.95;;;17.40;97.00;;;;;;5033947;28;20551;-74
2021/08/27 11:14:52;;;;;;;2.95;2.10;;;17.50;97.20;;;;;;5034368;28;20060;-72
2021/08/27 11:17:18;;;;;;;3.40;2.00;;;17.60;97.40;;;;;;5033548;28;20017;-73
2021/08/27 11:19:49;;;;;;;2.70;2.00;;;17.80;97.10;;;;;;5032530;28;20053;-70
2021/08/27 11:22:31;;;;;;;2.90;2.03;;;17.80;97.40;;;;;;5034128;28;20049;-64
2021/08/27 11:25:03;;;;;;;2.88;1.77;;;17.80;97.50;;;;;;5033709;28;20033;-64
2021/08/27 11:27:29;;;;;;;3.17;1.80;;;17.90;97.10;;;;;;5018070;28;20033;-65
2021/08/27 11:29:59;;;;;;;2.45;1.80;;;18.10;97.90;;;;;;5032631;28;20500;-63
2021/08/27 11:32:28;;;;;;;2.67;1.63;;;18.20;97.10;;;;;;5034079;28;20032;-64
2021/08/27 11:35:01;;;;;;;2.40;1.90;;;18.20;97.00;;;;;;5032926;28;20065;-65
2021/08/27 11:37:30;;;;;;;2.63;1.80;;;18.30;96.70;;;;;;5020870;28;20034;-64
2021/08/27 11:39:56;;;;;;;2.88;1.73;;;18.20;96.00;;;;;;5031758;28;20025;-64
2021/08/27 11:42:22;;;;;;;2.78;1.85;;;18.30;96.40;;;;;;5032720;28;20075;-65
2021/08/27 11:45:08;;;;;;;2.50;1.90;;;18.30;96.50;;;;;;5033716;28;20386;-65
2021/08/27 11:47:45;;;;;;;2.47;1.90;;;18.30;96.20;;;;;;5033356;28;20104;-65
2021/08/27 11:50:22;;;;;;;2.20;1.65;;;18.20;96.20;;;;;;5027463;28;20084;-64
2021/08/27 11:52:49;;;;;;;2.10;1.60;;;18.20;96.20;;;;;;5032232;28;20069;-69
2021/08/27 11:55:16;;;;;;;1.40;1.10;;;18.20;95.50;;;;;;5031586;28;20041;-65
2021/08/27 11:58:01;;;;;;;1.08;0.90;;;18.10;95.30;;;;;;5032827;28;20021;-66
2021/08/27 12:00:43;;;;;;;1.15;0.88;;;18.10;94.70;;;;;;5031712;28;20027;-64
2021/08/27 12:03:11;;;;;;;1.13;0.98;;;18.00;94.60;;;;;;5032890;28;20028;-64
2021/08/27 12:05:40;;;;;;;1.17;0.80;;;18.00;94.60;;;;;;5025637;28;20032;-66
2021/08/27 12:08:07;;;;;;;1.02;0.80;;;17.90;94.80;;;;;;5026890;28;20025;-65
2021/08/27 12:10:35;;;;;;;0.85;0.70;;;17.90;94.40;;;;;;5042647;28;20061;-65
2021/08/27 12:13:02;;;;;;;1.00;0.80;;;17.90;94.50;;;;;;5029495;28;20026;-65
2021/08/27 12:15:33;;;;;;;0.93;0.90;;;17.90;94.40;;;;;;5031908;28;20037;-64
2021/08/27 12:18:07;;;;;;;1.05;0.90;;;17.90;94.00;;;;;;5033659;28;20024;-65
2021/08/27 12:20:35;;;;;;;0.85;0.70;;;18.00;94.00;;;;;;5031783;28;20043;-65
2021/08/27 12:23:06;;;;;;;1.17;0.70;;;18.00;93.60;;;;;;5026737;28;20382;-65
2021/08/27 12:25:39;;;;;;;1.15;0.90;;;18.10;93.50;;;;;;5034287;28;20389;-64
2021/08/27 12:28:07;;;;;;;0.80;0.80;;;18.20;93.90;;;;;;5029429;28;20026;-64
2021/08/27 12:30:33;;;;;;;1.27;0.80;;;18.40;93.80;;;;;;5029462;28;20026;-64
2021/08/27 12:32:58;;;;;;;0.68;0.68;;;18.60;93.50;;;;;;5033329;28;20037;-65
2021/08/27 12:35:30;;;;;;;1.15;0.90;;;18.70;92.80;;;;;;5037939;28;20040;-64
2021/08/27 12:37:56;;;;;;;1.15;0.90;;;18.60;92.60;;;;;;5033031;28;20108;-65
2021/08/27 12:40:23;;;;;;;1.30;1.10;;;18.30;93.20;;;;;;5026166;28;20036;-64
2021/08/27 12:43:04;;;;;;;1.25;0.90;;;18.10;94.20;;;;;;5031498;28;20061;-64
2021/08/27 12:45:54;;;;;;;1.55;1.00;;;17.80;95.10;;;;;;5040722;28;20044;-63
2021/08/27 12:48:29;;;;;;;1.73;1.08;;;17.40;95.50;;;;;;5027844;28;20037;-63
2021/08/27 12:51:04;;;;;;;2.45;1.10;;;17.10;96.10;;;;;;5035860;28;20040;-64
2021/08/27 12:53:36;;;;;;;1.23;0.95;;;16.90;96.70;;;;;;5031235;28;20045;-63
2021/08/27 12:56:18;;;;;;;1.73;1.05;;;16.60;97.50;;;;;;5033110;28;20042;-61
2021/08/27 12:58:49;;;;;;;1.35;1.10;;;16.50;97.90;;;;;;5024314;28;20037;-64